Time;durP1;ratioP1;P1;durP2;ratioP2;P2;SDS_P1;SDS_P2;PMS_P1;PMS_P2;Temp;Humidity;BMP_temperature;BMP_pressure;BME280_temperature;BME280_humidity;BME280_pressure;Samples;Min_cycle;Max_cycle;Signal;HPM_P1;HPM_P2
2022/01/17 00:01:30;;;;;;;22.83;4.53;;;6.70;99.90;;;;;;5016130;28;20038;-62
2022/01/17 00:03:56;;;;;;;38.13;5.72;;;6.60;99.90;;;;;;5015096;28;20508;-63
2022/01/17 00:06:21;;;;;;;30.98;5.07;;;6.60;99.90;;;;;;5021246;28;20046;-62
2022/01/17 00:08:49;;;;;;;22.73;5.65;;;6.60;99.90;;;;;;5019045;28;20052;-63
2022/01/17 00:11:16;;;;;;;33.40;4.35;;;6.60;99.90;;;;;;5025239;28;20119;-62
2022/01/17 00:13:45;;;;;;;22.02;4.45;;;6.50;99.90;;;;;;5024527;28;20565;-63
2022/01/17 00:16:16;;;;;;;22.55;4.10;;;6.40;99.90;;;;;;5022537;28;20041;-63
2022/01/17 00:21:11;;;;;;;31.95;5.35;;;6.40;99.90;;;;;;5015486;28;20144;-63
2022/01/17 00:23:37;;;;;;;25.20;4.68;;;6.40;99.90;;;;;;5021070;28;20124;-62
2022/01/17 00:26:04;;;;;;;30.40;5.10;;;6.40;99.90;;;;;;5024002;28;20045;-62
2022/01/17 00:28:30;;;;;;;28.50;5.68;;;6.40;99.90;;;;;;5018811;28;20051;-62
2022/01/17 00:30:56;;;;;;;25.45;3.72;;;6.40;99.90;;;;;;5027041;28;20064;-62
2022/01/17 00:33:21;;;;;;;26.52;3.80;;;6.40;99.90;;;;;;5047706;28;20048;-63
2022/01/17 00:35:47;;;;;;;23.38;4.00;;;6.40;99.90;;;;;;5045652;28;20124;-62
2022/01/17 00:38:12;;;;;;;17.00;4.72;;;6.40;99.90;;;;;;5014237;28;20076;-62
2022/01/17 00:40:42;;;;;;;20.45;4.45;;;6.40;99.90;;;;;;5019382;28;20044;-62
2022/01/17 00:43:08;;;;;;;17.13;3.42;;;6.40;99.90;;;;;;5045304;28;20048;-62
2022/01/17 00:45:37;;;;;;;26.73;3.92;;;6.40;99.90;;;;;;5019810;28;20053;-62
2022/01/17 00:48:03;;;;;;;24.73;4.22;;;6.40;99.90;;;;;;5010751;28;20296;-63
2022/01/17 00:50:29;;;;;;;24.35;4.78;;;6.30;99.90;;;;;;5021065;28;20512;-62
2022/01/17 00:52:55;;;;;;;18.40;4.03;;;6.30;99.90;;;;;;5035931;28;20041;-62
2022/01/17 00:55:21;;;;;;;28.48;4.03;;;6.40;99.90;;;;;;5032152;28;20269;-62
2022/01/17 00:57:46;;;;;;;23.10;4.07;;;6.40;99.90;;;;;;5033750;28;20540;-62
2022/01/17 01:00:14;;;;;;;23.52;4.55;;;6.30;99.90;;;;;;5047789;28;20575;-63
2022/01/17 01:02:40;;;;;;;24.27;4.47;;;6.40;99.90;;;;;;5022727;28;20042;-62
2022/01/17 01:05:07;;;;;;;31.55;4.72;;;6.40;99.90;;;;;;5023065;28;20056;-63
2022/01/17 01:07:32;;;;;;;16.05;3.38;;;6.40;99.90;;;;;;5050896;28;20101;-62
2022/01/17 01:10:10;;;;;;;23.17;4.68;;;6.30;99.90;;;;;;5048732;28;20139;-64
2022/01/17 01:12:36;;;;;;;28.15;4.38;;;6.40;99.90;;;;;;5021977;28;20052;-63
2022/01/17 01:15:05;;;;;;;21.98;4.05;;;6.40;99.90;;;;;;5040022;28;20053;-63
2022/01/17 01:17:35;;;;;;;19.58;3.80;;;6.40;99.90;;;;;;5023469;28;20061;-63
2022/01/17 01:20:27;;;;;;;18.45;3.70;;;6.40;99.90;;;;;;5037769;28;20401;-63
2022/01/17 01:28:19;;;;;;;20.98;3.92;;;6.30;99.90;;;;;;5007735;28;20060;-64
2022/01/17 01:30:49;;;;;;;21.45;4.15;;;6.30;99.90;;;;;;5019303;28;20049;-63
2022/01/17 01:33:26;;;;;;;22.27;4.10;;;6.30;99.90;;;;;;5016061;28;20038;-63
2022/01/17 01:35:58;;;;;;;22.75;3.53;;;6.30;99.90;;;;;;5030802;28;20418;-64
2022/01/17 01:38:24;;;;;;;17.63;2.78;;;6.20;99.90;;;;;;5019703;28;20061;-63
2022/01/17 01:40:49;;;;;;;29.40;5.30;;;6.20;99.90;;;;;;5023898;28;20042;-63
2022/01/17 01:43:15;;;;;;;14.82;3.95;;;6.20;99.90;;;;;;5025834;28;20049;-63
2022/01/17 01:45:45;;;;;;;24.75;4.10;;;6.10;99.90;;;;;;5030353;28;20060;-63
2022/01/17 01:48:12;;;;;;;25.35;4.35;;;6.20;99.90;;;;;;5031010;28;20041;-63
2022/01/17 01:50:37;;;;;;;24.05;4.55;;;6.20;99.90;;;;;;5031429;28;20472;-63
2022/01/17 01:53:04;;;;;;;24.45;3.95;;;6.10;99.90;;;;;;5023864;28;20077;-63
2022/01/17 01:55:30;;;;;;;22.63;4.32;;;6.10;99.90;;;;;;5016817;28;20056;-63
2022/01/17 01:57:57;;;;;;;16.88;3.28;;;6.20;99.90;;;;;;5019279;28;20057;-63
2022/01/17 02:00:22;;;;;;;30.52;5.75;;;6.10;99.90;;;;;;5013134;28;20136;-63
2022/01/17 02:02:48;;;;;;;21.05;3.20;;;6.20;99.90;;;;;;5030869;28;20132;-63
2022/01/17 02:05:14;;;;;;;28.58;4.68;;;6.10;99.90;;;;;;5024083;28;20926;-63
2022/01/17 02:07:43;;;;;;;25.65;3.75;;;6.10;99.90;;;;;;5022718;28;20464;-63
2022/01/17 02:10:09;;;;;;;36.42;5.05;;;6.10;99.90;;;;;;5030070;28;20124;-63
2022/01/17 02:12:35;;;;;;;33.80;4.20;;;6.10;99.90;;;;;;5029062;28;20523;-63
2022/01/17 02:15:01;;;;;;;24.90;4.10;;;6.10;99.90;;;;;;5013777;28;20088;-63
2022/01/17 02:17:29;;;;;;;18.77;4.32;;;6.10;99.90;;;;;;5023571;28;20048;-63
2022/01/17 02:20:04;;;;;;;34.83;4.20;;;6.10;99.90;;;;;;5022483;28;20045;-63
2022/01/17 02:22:30;;;;;;;21.85;4.45;;;6.10;99.90;;;;;;5018550;28;20045;-63
2022/01/17 02:24:56;;;;;;;24.20;3.97;;;6.10;99.90;;;;;;5021631;28;20112;-63
2022/01/17 02:27:22;;;;;;;23.23;4.47;;;6.10;99.90;;;;;;5016942;28;20510;-63
2022/01/17 02:29:47;;;;;;;19.20;3.92;;;6.10;99.90;;;;;;5011805;28;20049;-63
2022/01/17 02:32:13;;;;;;;32.00;5.38;;;6.10;99.90;;;;;;5024248;28;20084;-63
2022/01/17 02:34:41;;;;;;;23.45;3.97;;;6.20;99.90;;;;;;5027088;28;20099;-63
2022/01/17 02:37:07;;;;;;;15.63;3.78;;;6.20;99.90;;;;;;5023051;28;20576;-64
2022/01/17 02:39:33;;;;;;;33.28;6.95;;;6.20;99.90;;;;;;5012137;28;20482;-63
2022/01/17 02:42:01;;;;;;;22.45;4.75;;;6.20;99.90;;;;;;5023436;28;20049;-63
2022/01/17 02:44:27;;;;;;;18.00;3.97;;;6.20;99.90;;;;;;5001784;28;20501;-63
2022/01/17 02:46:53;;;;;;;24.58;3.42;;;6.30;99.90;;;;;;5012579;28;20045;-63
2022/01/17 02:49:18;;;;;;;27.23;4.40;;;6.30;99.90;;;;;;5021773;28;20096;-63
2022/01/17 02:51:48;;;;;;;23.05;4.80;;;6.30;99.90;;;;;;5015978;28;20045;-63
2022/01/17 02:54:17;;;;;;;22.70;4.57;;;6.20;99.90;;;;;;5029986;28;20927;-63
2022/01/17 02:56:42;;;;;;;15.80;3.00;;;6.30;99.90;;;;;;5029771;28;20045;-63
2022/01/17 02:59:08;;;;;;;22.70;3.78;;;6.30;99.90;;;;;;5013785;28;20064;-63
2022/01/17 03:01:34;;;;;;;25.30;3.95;;;6.30;99.90;;;;;;5022240;28;20041;-63
2022/01/17 03:03:59;;;;;;;17.88;3.08;;;6.30;99.90;;;;;;5021826;28;20037;-63
2022/01/17 03:06:27;;;;;;;16.00;3.17;;;6.40;99.90;;;;;;5028839;28;20139;-63
2022/01/17 03:08:53;;;;;;;27.30;4.45;;;6.40;99.90;;;;;;5025451;28;20053;-63
2022/01/17 03:11:21;;;;;;;21.13;3.97;;;6.40;99.90;;;;;;5023756;28;20124;-63
2022/01/17 03:13:48;;;;;;;22.45;3.92;;;6.40;99.90;;;;;;5028583;28;20055;-63
2022/01/17 03:16:16;;;;;;;14.90;2.95;;;6.40;99.90;;;;;;5025571;28;20057;-63
2022/01/17 03:18:50;;;;;;;17.90;5.20;;;6.50;99.90;;;;;;5018646;28;20136;-63
2022/01/17 03:21:17;;;;;;;20.52;3.58;;;6.50;99.90;;;;;;5014915;28;20056;-63
2022/01/17 03:23:43;;;;;;;20.95;3.35;;;6.40;99.90;;;;;;5018876;28;20485;-63
2022/01/17 03:26:09;;;;;;;15.30;2.88;;;6.40;99.90;;;;;;5008000;28;20045;-64
2022/01/17 03:28:35;;;;;;;19.00;3.55;;;6.50;99.90;;;;;;5029360;28;20046;-63
2022/01/17 03:31:01;;;;;;;21.25;4.50;;;6.40;99.90;;;;;;5026452;28;20075;-63
2022/01/17 03:33:27;;;;;;;21.10;3.63;;;6.50;99.90;;;;;;5027365;28;20049;-63
2022/01/17 03:35:54;;;;;;;11.57;3.08;;;6.50;99.90;;;;;;5019261;28;20054;-63
2022/01/17 03:38:24;;;;;;;16.58;3.28;;;6.40;99.90;;;;;;5016402;28;20486;-63
2022/01/17 03:40:51;;;;;;;25.05;4.22;;;6.50;99.90;;;;;;5024686;28;20049;-63
2022/01/17 03:43:21;;;;;;;17.38;2.90;;;6.50;99.90;;;;;;5016675;28;20086;-63
2022/01/17 03:45:49;;;;;;;18.23;3.15;;;6.50;99.90;;;;;;5027441;28;20068;-63
2022/01/17 03:48:15;;;;;;;15.32;3.25;;;6.40;99.90;;;;;;5017436;28;20437;-64
2022/01/17 03:50:41;;;;;;;16.40;3.47;;;6.50;99.90;;;;;;5019999;28;20059;-64
2022/01/17 03:53:07;;;;;;;26.15;4.28;;;6.40;99.90;;;;;;5006977;28;20037;-63
2022/01/17 03:55:34;;;;;;;31.05;5.15;;;6.40;99.90;;;;;;5023299;28;20084;-63
2022/01/17 03:58:01;;;;;;;26.38;5.07;;;6.40;99.90;;;;;;5027045;28;20045;-63
2022/01/17 04:00:30;;;;;;;27.33;4.40;;;6.50;99.90;;;;;;5027382;28;20056;-64
2022/01/17 04:02:56;;;;;;;18.38;3.58;;;6.40;99.90;;;;;;5016596;28;20104;-63
2022/01/17 04:05:22;;;;;;;23.02;4.25;;;6.40;99.90;;;;;;5021488;28;20124;-63
2022/01/17 04:07:48;;;;;;;20.88;4.53;;;6.50;99.90;;;;;;5026254;28;20129;-63
2022/01/17 04:10:14;;;;;;;17.95;3.80;;;6.50;99.90;;;;;;5023280;28;20591;-63
2022/01/17 04:12:41;;;;;;;17.25;4.03;;;6.50;99.90;;;;;;5020032;28;20088;-63
2022/01/17 04:15:08;;;;;;;31.52;5.00;;;6.50;99.90;;;;;;5028195;28;20056;-64
2022/01/17 04:17:34;;;;;;;32.78;5.05;;;6.50;99.90;;;;;;5025784;28;20073;-63
2022/01/17 04:20:06;;;;;;;25.35;4.68;;;6.50;99.90;;;;;;5006856;28;20422;-63
2022/01/17 04:22:40;;;;;;;25.88;5.13;;;6.50;99.90;;;;;;5021479;28;20045;-63
2022/01/17 04:25:07;;;;;;;27.13;4.72;;;6.50;99.90;;;;;;5023316;28;20049;-64
2022/01/17 04:27:34;;;;;;;22.20;4.55;;;6.60;99.90;;;;;;5013724;28;20046;-64
2022/01/17 04:30:00;;;;;;;22.42;4.70;;;6.60;99.90;;;;;;5009470;28;20084;-64
2022/01/17 04:32:25;;;;;;;31.30;4.90;;;6.60;99.90;;;;;;5021872;28;20475;-64
2022/01/17 04:34:51;;;;;;;31.73;3.97;;;6.60;99.90;;;;;;5014498;28;20179;-64
2022/01/17 04:37:17;;;;;;;33.08;5.05;;;6.60;99.90;;;;;;5024281;28;20043;-63
2022/01/17 04:39:43;;;;;;;33.22;5.03;;;6.70;99.90;;;;;;4999316;28;20057;-63
2022/01/17 04:42:12;;;;;;;21.83;4.55;;;6.70;99.90;;;;;;5023780;28;20055;-63
2022/01/17 04:47:24;;;;;;;20.65;3.95;;;6.70;99.90;;;;;;5022740;28;20052;-63
2022/01/17 04:49:49;;;;;;;27.40;5.57;;;6.80;99.90;;;;;;5022012;28;20276;-63
2022/01/17 04:52:15;;;;;;;29.20;4.35;;;6.70;99.90;;;;;;5027491;28;20049;-64
2022/01/17 04:54:43;;;;;;;29.02;5.13;;;6.80;99.90;;;;;;5008556;28;20084;-63
2022/01/17 04:57:11;;;;;;;23.67;5.43;;;6.80;99.90;;;;;;5019971;28;20046;-63
2022/01/17 04:59:39;;;;;;;19.80;4.45;;;6.80;99.90;;;;;;5014653;28;20057;-62
2022/01/17 05:02:06;;;;;;;28.70;5.28;;;6.70;99.90;;;;;;5025522;28;20053;-63
2022/01/17 05:04:31;;;;;;;22.20;5.32;;;6.70;99.90;;;;;;5027777;28;20056;-63
2022/01/17 05:06:57;;;;;;;17.90;4.70;;;6.70;99.90;;;;;;5000895;28;20768;-63
2022/01/17 05:09:22;;;;;;;23.38;6.75;;;6.70;99.90;;;;;;5022073;28;20046;-63
2022/01/17 05:11:48;;;;;;;21.00;5.18;;;6.70;99.90;;;;;;5023552;28;20038;-63
2022/01/17 05:14:14;;;;;;;29.38;6.13;;;6.80;99.90;;;;;;5017447;28;20588;-63
2022/01/17 05:16:46;;;;;;;19.25;4.60;;;6.80;99.90;;;;;;5017047;28;20044;-63
2022/01/17 05:21:55;;;;;;;28.38;6.72;;;6.80;99.90;;;;;;5014390;28;20101;-63
2022/01/17 05:24:21;;;;;;;21.92;5.15;;;6.80;99.90;;;;;;5016606;28;20513;-63
2022/01/17 05:26:47;;;;;;;37.30;6.35;;;6.80;99.90;;;;;;5020737;28;20054;-63
2022/01/17 05:29:13;;;;;;;22.25;4.68;;;6.80;99.90;;;;;;5009418;28;20630;-64
2022/01/17 05:31:38;;;;;;;31.58;5.85;;;6.80;99.90;;;;;;5021521;28;20050;-64
2022/01/17 05:34:04;;;;;;;29.65;6.03;;;6.80;99.90;;;;;;5008734;28;20112;-63
2022/01/17 05:36:30;;;;;;;29.35;6.00;;;6.90;99.90;;;;;;5026659;28;20048;-63
2022/01/17 05:38:56;;;;;;;24.98;4.72;;;6.90;99.90;;;;;;5021755;28;20160;-63
2022/01/17 05:41:22;;;;;;;28.30;4.82;;;6.90;99.90;;;;;;5020218;28;20045;-63
2022/01/17 05:43:48;;;;;;;35.63;5.70;;;6.90;99.90;;;;;;5026324;28;20057;-63
2022/01/17 05:46:13;;;;;;;21.63;5.07;;;6.90;99.90;;;;;;5020223;28;20061;-64
2022/01/17 05:48:39;;;;;;;27.45;4.32;;;6.90;99.90;;;;;;5010380;28;20739;-63
2022/01/17 05:51:05;;;;;;;26.55;4.93;;;6.90;99.90;;;;;;5015300;28;20045;-63
2022/01/17 05:53:30;;;;;;;22.77;4.18;;;6.90;99.90;;;;;;5022624;28;20100;-64
2022/01/17 05:55:56;;;;;;;26.92;6.05;;;6.90;99.90;;;;;;5017959;28;20053;-63
2022/01/17 05:58:22;;;;;;;28.40;5.03;;;6.90;99.90;;;;;;5009202;28;20632;-63
2022/01/17 06:00:48;;;;;;;24.48;5.20;;;7.00;99.90;;;;;;5030857;28;20861;-63
2022/01/17 06:03:13;;;;;;;27.35;4.68;;;7.00;99.90;;;;;;5019647;28;20267;-64
2022/01/17 06:05:39;;;;;;;33.35;5.68;;;7.00;99.90;;;;;;5022580;28;20042;-63
2022/01/17 06:08:04;;;;;;;30.75;5.97;;;7.00;99.90;;;;;;5009394;28;20057;-64
2022/01/17 06:10:30;;;;;;;25.55;6.15;;;7.00;99.90;;;;;;5024245;28;20081;-64
2022/01/17 06:12:56;;;;;;;32.25;7.15;;;7.00;99.90;;;;;;5024899;28;20053;-64
2022/01/17 06:15:22;;;;;;;29.95;6.25;;;7.00;99.90;;;;;;5030578;28;20507;-63
2022/01/17 06:17:47;;;;;;;33.85;6.30;;;7.00;99.90;;;;;;5020190;28;20125;-64
2022/01/17 06:20:14;;;;;;;41.45;7.03;;;7.00;99.90;;;;;;5027958;28;20061;-63
2022/01/17 06:22:39;;;;;;;32.47;5.90;;;7.00;99.90;;;;;;5024638;28;20049;-64
2022/01/17 06:25:05;;;;;;;36.30;8.40;;;7.00;99.90;;;;;;5029534;28;20128;-64
2022/01/17 06:27:31;;;;;;;42.05;7.13;;;7.00;99.90;;;;;;5017573;28;20046;-63
2022/01/17 06:29:57;;;;;;;40.55;6.10;;;7.00;99.90;;;;;;5004085;28;20153;-64
2022/01/17 06:32:23;;;;;;;42.47;7.97;;;7.00;99.90;;;;;;5028436;28;20500;-63
2022/01/17 06:34:49;;;;;;;32.55;6.13;;;7.00;99.90;;;;;;5014526;28;20049;-64
2022/01/17 06:37:15;;;;;;;36.42;7.10;;;7.00;99.90;;;;;;5023060;28;20465;-63
2022/01/17 06:39:41;;;;;;;36.35;6.57;;;7.00;99.90;;;;;;5019712;28;20660;-63
2022/01/17 06:42:07;;;;;;;36.65;7.07;;;7.10;99.90;;;;;;5029886;28;20120;-63
2022/01/17 06:44:32;;;;;;;47.75;7.63;;;7.00;99.90;;;;;;5028537;28;20129;-63
2022/01/17 06:46:58;;;;;;;46.17;8.05;;;7.10;99.90;;;;;;5020263;28;20052;-64
2022/01/17 06:49:24;;;;;;;39.72;7.43;;;7.00;99.90;;;;;;5013556;28;20419;-63
2022/01/17 06:51:49;;;;;;;38.97;8.02;;;7.10;99.90;;;;;;5025834;28;20778;-64
2022/01/17 06:54:15;;;;;;;32.50;6.47;;;7.10;99.90;;;;;;5019598;28;20378;-64
2022/01/17 06:56:44;;;;;;;37.70;6.75;;;7.10;99.90;;;;;;5029958;28;20048;-63
2022/01/17 06:59:14;;;;;;;36.63;6.53;;;7.10;99.90;;;;;;5022883;28;20037;-64
2022/01/17 07:01:40;;;;;;;38.83;7.35;;;7.10;99.90;;;;;;5019051;28;20045;-63
2022/01/17 07:04:06;;;;;;;37.13;6.43;;;7.20;99.90;;;;;;5026880;28;20061;-63
2022/01/17 07:06:32;;;;;;;54.78;8.48;;;7.20;99.90;;;;;;5028467;28;20053;-63
2022/01/17 07:08:57;;;;;;;44.72;8.50;;;7.20;99.90;;;;;;5025040;28;20057;-63
2022/01/17 07:11:23;;;;;;;35.40;8.18;;;7.20;99.90;;;;;;5023064;28;20041;-63
2022/01/17 07:13:49;;;;;;;36.15;8.02;;;7.20;99.90;;;;;;5021957;28;20053;-63
2022/01/17 07:16:15;;;;;;;45.75;7.45;;;7.20;99.90;;;;;;5025002;28;20053;-64
2022/01/17 07:18:40;;;;;;;34.70;5.65;;;7.30;99.90;;;;;;5025902;28;20044;-64
2022/01/17 07:21:06;;;;;;;39.30;8.02;;;7.30;99.90;;;;;;5024828;28;20056;-63
2022/01/17 07:23:32;;;;;;;32.10;7.30;;;7.30;99.90;;;;;;5024341;28;20417;-63
2022/01/17 07:25:57;;;;;;;42.40;8.15;;;7.30;99.90;;;;;;5013536;28;20057;-64
2022/01/17 07:28:23;;;;;;;52.67;8.52;;;7.40;99.90;;;;;;5029568;28;20092;-64
2022/01/17 07:30:49;;;;;;;56.25;8.88;;;7.40;99.90;;;;;;5025760;28;20061;-63
2022/01/17 07:33:15;;;;;;;46.40;7.20;;;7.40;99.90;;;;;;5013026;28;20042;-64
2022/01/17 07:35:40;;;;;;;41.45;8.07;;;7.40;99.90;;;;;;5024477;28;20057;-64
2022/01/17 07:38:06;;;;;;;52.80;6.97;;;7.40;99.90;;;;;;5015615;28;20080;-64
2022/01/17 07:40:33;;;;;;;61.67;11.20;;;7.40;99.90;;;;;;5029444;28;20053;-64
2022/01/17 07:42:59;;;;;;;53.50;8.80;;;7.40;99.90;;;;;;5023324;28;20081;-64
2022/01/17 07:45:26;;;;;;;50.83;7.95;;;7.40;99.90;;;;;;5013099;28;20172;-64
2022/01/17 07:50:19;;;;;;;38.15;8.32;;;7.50;99.90;;;;;;5006525;28;20058;-64
2022/01/17 07:52:45;;;;;;;37.97;7.60;;;7.50;99.90;;;;;;5017253;28;20061;-64
2022/01/17 07:55:12;;;;;;;43.83;7.75;;;7.50;99.90;;;;;;5026873;28;20041;-64
2022/01/17 07:57:39;;;;;;;43.67;8.93;;;7.50;99.90;;;;;;5026942;28;20575;-63
2022/01/17 08:00:10;;;;;;;41.17;8.63;;;7.50;99.90;;;;;;5019460;28;20582;-64
2022/01/17 08:02:36;;;;;;;44.65;7.45;;;7.50;99.90;;;;;;5010242;28;20052;-64
2022/01/17 08:05:03;;;;;;;45.53;7.03;;;7.50;99.90;;;;;;5008891;28;20449;-64
2022/01/17 08:07:29;;;;;;;53.03;10.45;;;7.50;99.90;;;;;;5014396;28;20038;-64
2022/01/17 08:09:55;;;;;;;38.40;7.22;;;7.50;99.90;;;;;;5017853;28;20501;-66
2022/01/17 08:12:21;;;;;;;52.22;7.90;;;7.60;99.90;;;;;;5007908;28;20041;-64
2022/01/17 08:14:46;;;;;;;47.83;8.70;;;7.60;99.90;;;;;;5016529;28;20088;-64
2022/01/17 08:17:12;;;;;;;40.55;8.05;;;7.60;99.90;;;;;;5020995;28;20103;-64
2022/01/17 08:19:38;;;;;;;46.25;8.57;;;7.60;99.90;;;;;;5015492;28;20041;-63
2022/01/17 08:22:06;;;;;;;34.03;6.65;;;7.60;99.90;;;;;;5017351;28;20397;-63
2022/01/17 08:24:34;;;;;;;45.00;6.75;;;7.70;99.90;;;;;;5013884;28;20060;-63
2022/01/17 08:27:00;;;;;;;40.70;7.28;;;7.70;99.90;;;;;;5014971;28;20065;-63
2022/01/17 08:29:26;;;;;;;35.55;6.15;;;7.70;99.90;;;;;;4996434;28;20100;-63
2022/01/17 08:31:52;;;;;;;52.97;8.65;;;7.80;99.90;;;;;;5027007;28;20061;-63
2022/01/17 08:34:18;;;;;;;37.97;8.25;;;7.80;99.90;;;;;;5014360;28;20061;-63
2022/01/17 08:36:45;;;;;;;34.28;7.20;;;7.80;99.90;;;;;;5018573;28;20045;-62
2022/01/17 08:39:12;;;;;;;28.55;5.82;;;7.80;99.90;;;;;;5025778;28;20091;-63
2022/01/17 08:41:42;;;;;;;29.85;5.75;;;8.00;99.90;;;;;;5004597;28;20444;-63
2022/01/17 08:44:12;;;;;;;38.20;7.50;;;8.00;99.90;;;;;;5021338;28;20431;-63
2022/01/17 08:46:38;;;;;;;32.47;6.10;;;8.10;99.90;;;;;;5025392;28;20049;-63
2022/01/17 08:49:04;;;;;;;40.10;7.70;;;8.10;99.90;;;;;;5011675;28;20036;-63
2022/01/17 08:51:29;;;;;;;44.72;8.25;;;8.10;99.90;;;;;;5028351;28;20053;-63
2022/01/17 08:53:55;;;;;;;35.03;7.28;;;8.20;99.90;;;;;;5025180;28;20296;-63
2022/01/17 08:56:20;;;;;;;51.85;8.45;;;8.20;99.90;;;;;;5021799;28;20767;-63
2022/01/17 08:58:46;;;;;;;46.92;7.22;;;8.30;99.90;;;;;;5012619;28;20128;-62
2022/01/17 09:01:13;;;;;;;32.10;6.25;;;8.30;99.90;;;;;;5003984;28;20037;-62
2022/01/17 09:03:40;;;;;;;47.97;7.25;;;8.30;99.90;;;;;;5026724;28;20081;-62
2022/01/17 09:06:05;;;;;;;41.92;7.75;;;8.40;99.90;;;;;;5022148;28;20042;-62
2022/01/17 09:08:31;;;;;;;38.85;7.60;;;8.40;99.90;;;;;;5017742;28;20056;-62
2022/01/17 09:10:58;;;;;;;35.35;8.20;;;8.40;99.90;;;;;;5026761;28;20064;-62
2022/01/17 09:13:24;;;;;;;40.42;6.65;;;8.40;99.90;;;;;;5027174;28;20045;-62
2022/01/17 09:15:50;;;;;;;44.00;8.18;;;8.40;99.90;;;;;;5012665;28;20622;-62
2022/01/17 09:18:17;;;;;;;44.70;7.05;;;8.50;99.90;;;;;;5009583;28;20564;-62
2022/01/17 09:20:43;;;;;;;46.90;9.45;;;8.50;99.90;;;;;;5016304;28;20114;-62
2022/01/17 09:23:08;;;;;;;39.28;6.70;;;8.60;99.90;;;;;;5025262;28;20033;-62
2022/01/17 09:25:34;;;;;;;41.88;8.48;;;8.70;99.90;;;;;;5024076;28;20165;-62
2022/01/17 09:28:00;;;;;;;37.20;6.43;;;8.70;99.90;;;;;;5018231;28;20497;-62
2022/01/17 09:30:26;;;;;;;40.53;9.32;;;8.80;99.90;;;;;;5016768;28;20099;-62
2022/01/17 09:32:51;;;;;;;34.05;7.18;;;8.80;99.90;;;;;;5025006;28;20037;-62
2022/01/17 09:35:17;;;;;;;40.40;9.02;;;8.90;99.90;;;;;;5007370;28;20053;-62
2022/01/17 09:37:43;;;;;;;43.67;8.57;;;8.90;99.90;;;;;;5024727;28;20037;-62
2022/01/17 09:40:10;;;;;;;37.28;7.65;;;9.00;99.90;;;;;;5010019;28;20056;-62
2022/01/17 09:42:37;;;;;;;50.42;10.27;;;8.90;99.90;;;;;;5030657;28;20038;-62
2022/01/17 09:45:06;;;;;;;50.40;8.80;;;9.10;99.90;;;;;;5018450;28;20045;-62
2022/01/17 09:47:34;;;;;;;39.33;6.93;;;9.10;99.90;;;;;;5018374;28;20205;-62
2022/01/17 09:50:01;;;;;;;36.00;8.18;;;9.10;99.90;;;;;;5030097;28;20049;-62
2022/01/17 09:52:34;;;;;;;49.95;8.32;;;9.10;99.90;;;;;;5027457;28;20061;-62
2022/01/17 09:55:09;;;;;;;46.88;9.68;;;9.10;99.90;;;;;;5027966;28;20037;-62
2022/01/17 09:57:39;;;;;;;35.53;7.38;;;9.10;99.90;;;;;;5012704;28;20489;-62
2022/01/17 10:00:07;;;;;;;43.08;7.90;;;9.30;99.90;;;;;;5026170;28;20053;-62
2022/01/17 10:02:33;;;;;;;53.00;11.60;;;9.40;99.90;;;;;;5025148;28;20053;-62
2022/01/17 10:05:02;;;;;;;52.17;10.15;;;9.30;99.90;;;;;;5030058;28;20067;-62
2022/01/17 10:08:03;;;;;;;45.25;8.50;;;9.40;99.90;;;;;;5028320;28;20076;-62
2022/01/17 10:10:38;;;;;;;58.03;9.95;;;9.30;99.90;;;;;;5024136;28;20045;-62
2022/01/17 10:13:34;;;;;;;37.15;8.80;;;9.30;99.90;;;;;;5004864;28;20049;-62
2022/01/17 10:16:08;;;;;;;61.55;10.30;;;9.30;99.90;;;;;;5026853;28;20124;-62
2022/01/17 10:18:45;;;;;;;56.78;10.65;;;9.40;99.90;;;;;;5018402;28;20099;-62
2022/01/17 10:21:27;;;;;;;46.72;10.48;;;9.40;99.90;;;;;;5027546;28;20591;-62
2022/01/17 10:24:25;;;;;;;46.30;8.48;;;9.50;99.90;;;;;;5011017;28;20100;-62
2022/01/17 10:35:38;;;;;;;59.65;10.45;;;9.60;99.90;;;;;;5024730;28;20049;-62
2022/01/17 10:38:19;;;;;;;49.97;10.35;;;9.70;99.90;;;;;;5014129;28;20054;-62
2022/01/17 10:41:05;;;;;;;54.25;11.60;;;9.70;99.90;;;;;;5016100;28;20107;-62
2022/01/17 10:43:36;;;;;;;57.88;11.57;;;9.60;99.90;;;;;;5017918;28;20057;-62
2022/01/17 10:46:07;;;;;;;45.58;11.30;;;9.70;99.90;;;;;;5016749;28;20049;-61
2022/01/17 10:48:42;;;;;;;45.78;11.20;;;9.70;99.90;;;;;;5020609;28;20613;-62
2022/01/17 10:51:09;;;;;;;60.10;11.48;;;9.70;99.90;;;;;;5018941;28;20415;-62
2022/01/17 10:53:39;;;;;;;46.03;10.48;;;9.70;99.90;;;;;;5021188;28;20053;-62
2022/01/17 10:56:08;;;;;;;58.72;12.70;;;9.80;99.90;;;;;;5019581;28;20049;-62
2022/01/17 10:58:36;;;;;;;49.92;10.57;;;9.90;99.90;;;;;;5023126;28;20041;-61
2022/01/17 11:01:11;;;;;;;48.97;10.88;;;9.90;99.90;;;;;;5012135;28;20069;-62
2022/01/17 11:03:38;;;;;;;63.80;12.13;;;9.90;99.90;;;;;;5025117;28;20071;-61
2022/01/17 11:06:09;;;;;;;58.80;11.65;;;9.90;99.90;;;;;;5026252;28;20094;-62
2022/01/17 11:08:36;;;;;;;43.83;10.00;;;9.90;99.90;;;;;;5023805;28;20489;-62
2022/01/17 11:11:05;;;;;;;56.10;10.20;;;10.00;99.90;;;;;;5013739;28;20030;-61
2022/01/17 11:13:38;;;;;;;49.40;10.57;;;10.00;99.90;;;;;;5010463;28;20050;-62
2022/01/17 11:16:08;;;;;;;55.63;12.33;;;10.00;99.90;;;;;;5009308;28;20042;-62
2022/01/17 11:18:36;;;;;;;52.17;9.82;;;10.10;99.90;;;;;;5013610;28;20884;-61
2022/01/17 11:21:11;;;;;;;49.65;11.27;;;10.00;99.90;;;;;;5018929;28;20056;-62
2022/01/17 11:23:45;;;;;;;52.42;11.40;;;10.20;99.90;;;;;;5000054;28;20057;-61
2022/01/17 11:26:12;;;;;;;60.30;10.20;;;10.20;99.90;;;;;;4998774;28;20686;-62
2022/01/17 11:28:38;;;;;;;50.35;10.40;;;10.20;99.90;;;;;;5021227;28;20072;-62
2022/01/17 11:31:07;;;;;;;43.30;9.40;;;10.30;99.90;;;;;;5020787;28;20501;-61
2022/01/17 11:33:34;;;;;;;50.33;10.63;;;10.30;99.90;;;;;;5020289;28;20049;-62
2022/01/17 11:36:00;;;;;;;56.03;9.55;;;10.40;99.90;;;;;;5025610;28;20037;-62
2022/01/17 11:38:30;;;;;;;41.85;9.80;;;10.50;99.90;;;;;;5008357;28;20048;-61
2022/01/17 11:40:58;;;;;;;58.70;14.00;;;10.50;99.90;;;;;;5014925;28;20045;-62
2022/01/17 11:43:32;;;;;;;53.65;10.27;;;10.60;99.90;;;;;;5009029;28;20073;-62
2022/01/17 11:46:00;;;;;;;53.78;10.75;;;10.70;99.90;;;;;;5008854;28;20054;-62
2022/01/17 11:48:32;;;;;;;49.15;10.95;;;10.80;99.90;;;;;;5008861;28;20038;-62
2022/01/17 11:51:12;;;;;;;48.40;10.68;;;10.90;99.90;;;;;;5007931;28;20033;-62
2022/01/17 11:53:42;;;;;;;70.85;17.30;;;11.00;99.90;;;;;;5009279;28;20512;-62
2022/01/17 11:56:08;;;;;;;65.97;14.48;;;11.10;99.90;;;;;;5025251;28;20121;-62
2022/01/17 11:58:46;;;;;;;56.55;11.52;;;11.30;99.90;;;;;;5018409;28;20411;-62
2022/01/17 12:01:18;;;;;;;66.28;13.52;;;11.30;99.90;;;;;;5008463;28;20076;-62
2022/01/17 12:03:53;;;;;;;61.90;11.13;;;11.40;99.90;;;;;;4999940;28;20046;-62
2022/01/17 12:06:22;;;;;;;59.20;12.70;;;11.50;99.90;;;;;;5010732;28;20478;-62
2022/01/17 12:08:49;;;;;;;50.78;11.82;;;11.60;99.90;;;;;;5028570;28;20072;-62
2022/01/17 12:11:31;;;;;;;58.53;13.07;;;11.60;99.90;;;;;;5026867;28;20128;-62
2022/01/17 12:14:17;;;;;;;56.45;10.50;;;11.80;99.90;;;;;;5027330;28;20440;-62
2022/01/17 12:16:42;;;;;;;56.63;12.52;;;12.00;99.90;;;;;;5015891;28;20045;-62
2022/01/17 12:19:10;;;;;;;51.83;12.07;;;11.90;99.90;;;;;;5018682;28;20033;-61
2022/01/17 12:21:57;;;;;;;55.17;12.57;;;11.70;99.90;;;;;;5026015;28;20132;-61
2022/01/17 12:24:38;;;;;;;47.70;10.77;;;11.70;99.90;;;;;;5027427;28;20546;-61
2022/01/17 12:27:10;;;;;;;61.88;13.27;;;11.90;99.90;;;;;;5022163;28;20038;-62
2022/01/17 12:29:38;;;;;;;55.55;12.73;;;11.90;99.90;;;;;;5014310;28;20064;-62
2022/01/17 12:32:05;;;;;;;53.03;11.70;;;11.90;99.90;;;;;;5011794;28;20068;-62
2022/01/17 12:34:42;;;;;;;60.65;11.73;;;11.90;99.90;;;;;;5027850;28;20056;-62
2022/01/17 12:37:30;;;;;;;53.72;12.00;;;11.90;99.90;;;;;;5023357;28;20552;-62
2022/01/17 12:40:20;;;;;;;55.75;11.73;;;11.90;99.90;;;;;;5027180;28;20049;-62
2022/01/17 12:43:07;;;;;;;52.63;11.93;;;11.80;99.90;;;;;;5022254;28;20069;-62
2022/01/17 12:45:55;;;;;;;68.72;14.18;;;11.80;99.90;;;;;;5014903;28;20045;-62
2022/01/17 12:48:24;;;;;;;64.03;12.85;;;11.70;99.90;;;;;;5028065;28;20050;-62
2022/01/17 12:50:51;;;;;;;51.47;11.00;;;11.60;99.90;;;;;;5008634;28;20038;-62
2022/01/17 12:53:19;;;;;;;55.80;13.18;;;11.70;99.90;;;;;;5005955;28;20045;-62
2022/01/17 12:55:57;;;;;;;61.78;15.10;;;11.80;99.90;;;;;;5008745;28;20057;-62
2022/01/17 12:58:42;;;;;;;59.65;14.95;;;11.80;99.90;;;;;;5017230;28;20048;-62
2022/01/17 13:01:12;;;;;;;60.42;12.25;;;12.00;99.90;;;;;;5020387;28;20388;-62
2022/01/17 13:03:40;;;;;;;67.70;11.40;;;11.80;99.90;;;;;;5014968;28;20100;-62
2022/01/17 13:06:13;;;;;;;58.28;11.65;;;11.80;99.90;;;;;;5021556;28;20446;-62
2022/01/17 13:08:43;;;;;;;53.60;14.13;;;11.80;99.90;;;;;;5028575;28;20052;-62
2022/01/17 13:11:13;;;;;;;58.05;13.60;;;11.90;99.90;;;;;;5027598;28;20057;-62
2022/01/17 13:13:56;;;;;;;58.83;12.43;;;11.80;99.90;;;;;;5005378;28;20038;-62